sensor_id;sensor_type;location;lat;lon;timestamp;temperature;humidity
6244;DHT22;3155;49.940;8.450;2023-04-24T00:00:50;9.00;99.90
6244;DHT22;3155;49.940;8.450;2023-04-24T00:03:17;9.00;99.90
6244;DHT22;3155;49.940;8.450;2023-04-24T00:05:47;9.10;99.90
6244;DHT22;3155;49.940;8.450;2023-04-24T00:08:20;9.20;99.90
6244;DHT22;3155;49.940;8.450;2023-04-24T00:10:47;9.30;99.90
6244;DHT22;3155;49.940;8.450;2023-04-24T00:13:14;9.40;99.90
6244;DHT22;3155;49.940;8.450;2023-04-24T00:15:40;9.40;99.90
6244;DHT22;3155;49.940;8.450;2023-04-24T00:18:07;9.40;99.90
6244;DHT22;3155;49.940;8.450;2023-04-24T00:20:57;9.40;99.90
6244;DHT22;3155;49.940;8.450;2023-04-24T00:23:25;9.40;99.90
6244;DHT22;3155;49.940;8.450;2023-04-24T00:26:16;9.40;99.90
6244;DHT22;3155;49.940;8.450;2023-04-24T00:28:43;9.50;99.90
6244;DHT22;3155;49.940;8.450;2023-04-24T00:31:16;9.60;99.90
6244;DHT22;3155;49.940;8.450;2023-04-24T00:33:42;9.60;99.90
6244;DHT22;3155;49.940;8.450;2023-04-24T00:36:12;9.60;99.90
6244;DHT22;3155;49.940;8.450;2023-04-24T00:38:39;9.60;99.90
6244;DHT22;3155;49.940;8.450;2023-04-24T00:41:10;9.50;99.90
6244;DHT22;3155;49.940;8.450;2023-04-24T00:43:36;9.40;1.00
6244;DHT22;3155;49.940;8.450;2023-04-24T00:46:03;9.30;1.00
6244;DHT22;3155;49.940;8.450;2023-04-24T00:48:32;9.30;1.00
6244;DHT22;3155;49.940;8.450;2023-04-24T00:51:00;9.20;1.00
6244;DHT22;3155;49.940;8.450;2023-04-24T00:53:27;9.10;1.00
6244;DHT22;3155;49.940;8.450;2023-04-24T00:55:53;9.20;1.00
6244;DHT22;3155;49.940;8.450;2023-04-24T00:58:20;9.20;1.00
6244;DHT22;3155;49.940;8.450;2023-04-24T01:00:49;9.30;1.00
6244;DHT22;3155;49.940;8.450;2023-04-24T01:03:17;9.30;1.00
6244;DHT22;3155;49.940;8.450;2023-04-24T01:05:45;9.40;1.00
6244;DHT22;3155;49.940;8.450;2023-04-24T01:08:12;9.40;1.00
6244;DHT22;3155;49.940;8.450;2023-04-24T01:10:41;9.30;1.00
6244;DHT22;3155;49.940;8.450;2023-04-24T01:13:08;9.20;1.00
6244;DHT22;3155;49.940;8.450;2023-04-24T01:15:35;9.10;1.00
6244;DHT22;3155;49.940;8.450;2023-04-24T01:18:03;9.10;1.00
6244;DHT22;3155;49.940;8.450;2023-04-24T01:20:33;9.00;1.00
6244;DHT22;3155;49.940;8.450;2023-04-24T01:23:01;8.90;1.00
6244;DHT22;3155;49.940;8.450;2023-04-24T01:25:28;8.90;1.00
6244;DHT22;3155;49.940;8.450;2023-04-24T01:27:55;8.80;1.00
6244;DHT22;3155;49.940;8.450;2023-04-24T01:30:22;8.90;1.00
6244;DHT22;3155;49.940;8.450;2023-04-24T01:32:52;8.90;1.00
6244;DHT22;3155;49.940;8.450;2023-04-24T01:35:20;8.90;1.00
6244;DHT22;3155;49.940;8.450;2023-04-24T01:37:46;8.90;1.00
6244;DHT22;3155;49.940;8.450;2023-04-24T01:40:13;9.00;1.00
6244;DHT22;3155;49.940;8.450;2023-04-24T01:42:41;9.10;1.00
6244;DHT22;3155;49.940;8.450;2023-04-24T01:45:13;9.20;1.00
6244;DHT22;3155;49.940;8.450;2023-04-24T01:47:40;9.30;1.00
6244;DHT22;3155;49.940;8.450;2023-04-24T01:50:08;9.40;1.00
6244;DHT22;3155;49.940;8.450;2023-04-24T01:52:35;9.50;99.90
6244;DHT22;3155;49.940;8.450;2023-04-24T01:55:06;9.50;99.90
6244;DHT22;3155;49.940;8.450;2023-04-24T01:57:33;9.50;99.90
6244;DHT22;3155;49.940;8.450;2023-04-24T02:00:00;9.60;99.90
6244;DHT22;3155;49.940;8.450;2023-04-24T02:02:27;9.60;99.90
6244;DHT22;3155;49.940;8.450;2023-04-24T02:04:54;9.60;99.90
6244;DHT22;3155;49.940;8.450;2023-04-24T02:07:21;9.60;99.90
6244;DHT22;3155;49.940;8.450;2023-04-24T02:09:48;9.60;1.00
6244;DHT22;3155;49.940;8.450;2023-04-24T02:12:15;9.50;1.00
6244;DHT22;3155;49.940;8.450;2023-04-24T02:14:44;9.50;1.00
6244;DHT22;3155;49.940;8.450;2023-04-24T02:17:11;9.50;1.00
6244;DHT22;3155;49.940;8.450;2023-04-24T02:19:38;9.40;1.00
6244;DHT22;3155;49.940;8.450;2023-04-24T02:22:06;9.40;1.00
6244;DHT22;3155;49.940;8.450;2023-04-24T02:24:33;9.40;1.00
6244;DHT22;3155;49.940;8.450;2023-04-24T02:26:59;9.40;1.00
6244;DHT22;3155;49.940;8.450;2023-04-24T02:29:26;9.40;1.00
6244;DHT22;3155;49.940;8.450;2023-04-24T02:31:53;9.40;1.00
6244;DHT22;3155;49.940;8.450;2023-04-24T02:34:20;9.40;1.00
6244;DHT22;3155;49.940;8.450;2023-04-24T02:36:47;9.40;1.00
6244;DHT22;3155;49.940;8.450;2023-04-24T02:39:13;9.40;1.00
6244;DHT22;3155;49.940;8.450;2023-04-24T02:41:43;9.50;1.00
6244;DHT22;3155;49.940;8.450;2023-04-24T02:44:10;9.50;1.00
6244;DHT22;3155;49.940;8.450;2023-04-24T02:46:36;9.50;1.00
6244;DHT22;3155;49.940;8.450;2023-04-24T02:49:03;9.50;99.90
6244;DHT22;3155;49.940;8.450;2023-04-24T02:51:30;9.50;99.90
6244;DHT22;3155;49.940;8.450;2023-04-24T02:53:57;9.50;99.90
6244;DHT22;3155;49.940;8.450;2023-04-24T02:56:24;9.50;1.00
6244;DHT22;3155;49.940;8.450;2023-04-24T02:58:53;9.50;1.00
6244;DHT22;3155;49.940;8.450;2023-04-24T03:01:20;9.50;99.90
6244;DHT22;3155;49.940;8.450;2023-04-24T03:03:47;9.60;99.90
6244;DHT22;3155;49.940;8.450;2023-04-24T03:06:14;9.60;99.90
6244;DHT22;3155;49.940;8.450;2023-04-24T03:08:41;9.60;99.90
6244;DHT22;3155;49.940;8.450;2023-04-24T03:11:10;9.60;99.90
6244;DHT22;3155;49.940;8.450;2023-04-24T03:13:37;9.60;99.90
6244;DHT22;3155;49.940;8.450;2023-04-24T03:16:04;9.60;99.90
6244;DHT22;3155;49.940;8.450;2023-04-24T03:18:32;9.50;1.00
6244;DHT22;3155;49.940;8.450;2023-04-24T03:20:58;9.50;1.00
6244;DHT22;3155;49.940;8.450;2023-04-24T03:23:25;9.40;1.00
6244;DHT22;3155;49.940;8.450;2023-04-24T03:25:52;9.40;1.00
6244;DHT22;3155;49.940;8.450;2023-04-24T03:28:19;9.40;1.00
6244;DHT22;3155;49.940;8.450;2023-04-24T03:30:46;9.40;1.00
6244;DHT22;3155;49.940;8.450;2023-04-24T03:33:12;9.40;1.00
6244;DHT22;3155;49.940;8.450;2023-04-24T03:35:39;9.30;1.00
6244;DHT22;3155;49.940;8.450;2023-04-24T03:38:06;9.30;1.00
6244;DHT22;3155;49.940;8.450;2023-04-24T03:40:33;9.40;1.00
6244;DHT22;3155;49.940;8.450;2023-04-24T03:43:00;9.40;99.90
6244;DHT22;3155;49.940;8.450;2023-04-24T03:45:27;9.40;99.90
6244;DHT22;3155;49.940;8.450;2023-04-24T03:47:56;9.40;1.00
6244;DHT22;3155;49.940;8.450;2023-04-24T03:50:24;9.40;99.90
6244;DHT22;3155;49.940;8.450;2023-04-24T03:52:50;9.50;1.00
6244;DHT22;3155;49.940;8.450;2023-04-24T03:55:17;9.40;1.00
6244;DHT22;3155;49.940;8.450;2023-04-24T03:57:44;9.50;99.90
6244;DHT22;3155;49.940;8.450;2023-04-24T04:00:11;9.50;1.00
6244;DHT22;3155;49.940;8.450;2023-04-24T04:02:38;9.50;12.10
6244;DHT22;3155;49.940;8.450;2023-04-24T04:05:05;9.50;1.00
6244;DHT22;3155;49.940;8.450;2023-04-24T04:07:32;9.40;99.90
6244;DHT22;3155;49.940;8.450;2023-04-24T04:09:59;9.40;1.00
6244;DHT22;3155;49.940;8.450;2023-04-24T04:12:26;9.20;22.40
6244;DHT22;3155;49.940;8.450;2023-04-24T04:14:52;9.20;24.60
6244;DHT22;3155;49.940;8.450;2023-04-24T04:17:19;9.10;9.40
6244;DHT22;3155;49.940;8.450;2023-04-24T04:19:46;8.90;1.00
6244;DHT22;3155;49.940;8.450;2023-04-24T04:22:12;8.70;77.60
6244;DHT22;3155;49.940;8.450;2023-04-24T04:24:39;8.60;99.90
6244;DHT22;3155;49.940;8.450;2023-04-24T04:27:07;8.40;99.90
6244;DHT22;3155;49.940;8.450;2023-04-24T04:29:34;8.30;99.90
6244;DHT22;3155;49.940;8.450;2023-04-24T04:32:02;8.20;99.90
6244;DHT22;3155;49.940;8.450;2023-04-24T04:34:32;8.20;99.90
6244;DHT22;3155;49.940;8.450;2023-04-24T04:36:59;8.10;99.90
6244;DHT22;3155;49.940;8.450;2023-04-24T04:39:28;8.00;1.00
6244;DHT22;3155;49.940;8.450;2023-04-24T04:41:55;8.00;1.00
6244;DHT22;3155;49.940;8.450;2023-04-24T04:44:22;8.00;1.00
6244;DHT22;3155;49.940;8.450;2023-04-24T04:46:50;8.00;99.90
6244;DHT22;3155;49.940;8.450;2023-04-24T04:49:19;8.00;1.00
6244;DHT22;3155;49.940;8.450;2023-04-24T04:51:49;8.00;1.00
6244;DHT22;3155;49.940;8.450;2023-04-24T04:54:17;8.00;99.90
6244;DHT22;3155;49.940;8.450;2023-04-24T04:56:44;8.10;99.90
6244;DHT22;3155;49.940;8.450;2023-04-24T04:59:10;8.20;99.90
6244;DHT22;3155;49.940;8.450;2023-04-24T05:01:37;8.30;67.10
6244;DHT22;3155;49.940;8.450;2023-04-24T05:04:04;8.40;1.00
6244;DHT22;3155;49.940;8.450;2023-04-24T05:06:31;8.40;1.00
6244;DHT22;3155;49.940;8.450;2023-04-24T05:08:58;8.50;1.00
6244;DHT22;3155;49.940;8.450;2023-04-24T05:11:25;8.40;1.00
6244;DHT22;3155;49.940;8.450;2023-04-24T05:13:53;8.40;1.00
6244;DHT22;3155;49.940;8.450;2023-04-24T05:16:20;8.30;1.00
6244;DHT22;3155;49.940;8.450;2023-04-24T05:18:48;8.20;1.00
6244;DHT22;3155;49.940;8.450;2023-04-24T05:21:14;8.20;99.90
6244;DHT22;3155;49.940;8.450;2023-04-24T05:23:42;8.30;1.00
6244;DHT22;3155;49.940;8.450;2023-04-24T05:26:11;8.50;1.00
6244;DHT22;3155;49.940;8.450;2023-04-24T05:28:38;8.70;1.00
6244;DHT22;3155;49.940;8.450;2023-04-24T05:31:04;8.80;99.90
6244;DHT22;3155;49.940;8.450;2023-04-24T05:33:31;8.80;99.90
6244;DHT22;3155;49.940;8.450;2023-04-24T05:36:01;8.80;1.00
6244;DHT22;3155;49.940;8.450;2023-04-24T05:38:28;8.70;99.90
6244;DHT22;3155;49.940;8.450;2023-04-24T05:40:55;8.60;1.00
6244;DHT22;3155;49.940;8.450;2023-04-24T05:43:22;8.70;99.90
6244;DHT22;3155;49.940;8.450;2023-04-24T05:45:48;8.70;1.00
6244;DHT22;3155;49.940;8.450;2023-04-24T05:48:15;8.70;99.90
6244;DHT22;3155;49.940;8.450;2023-04-24T05:50:42;8.80;99.90
6244;DHT22;3155;49.940;8.450;2023-04-24T05:53:09;9.20;99.90
6244;DHT22;3155;49.940;8.450;2023-04-24T05:55:37;9.60;1.00
6244;DHT22;3155;49.940;8.450;2023-04-24T05:58:03;9.70;1.00
6244;DHT22;3155;49.940;8.450;2023-04-24T06:00:31;9.60;1.00
6244;DHT22;3155;49.940;8.450;2023-04-24T06:03:01;9.60;1.00
6244;DHT22;3155;49.940;8.450;2023-04-24T06:05:30;9.70;1.00
6244;DHT22;3155;49.940;8.450;2023-04-24T06:07:58;9.90;1.00
6244;DHT22;3155;49.940;8.450;2023-04-24T06:10:24;9.90;1.00
6244;DHT22;3155;49.940;8.450;2023-04-24T06:12:51;10.30;1.00
6244;DHT22;3155;49.940;8.450;2023-04-24T06:15:18;10.70;1.00
6244;DHT22;3155;49.940;8.450;2023-04-24T06:17:47;10.90;1.00
6244;DHT22;3155;49.940;8.450;2023-04-24T06:20:13;11.10;99.90
6244;DHT22;3155;49.940;8.450;2023-04-24T06:22:40;11.20;99.90
6244;DHT22;3155;49.940;8.450;2023-04-24T06:25:09;10.90;99.90
6244;DHT22;3155;49.940;8.450;2023-04-24T06:27:36;10.70;1.00
6244;DHT22;3155;49.940;8.450;2023-04-24T06:30:03;10.60;1.00
6244;DHT22;3155;49.940;8.450;2023-04-24T06:32:30;10.40;1.00
6244;DHT22;3155;49.940;8.450;2023-04-24T06:34:57;10.20;1.00
6244;DHT22;3155;49.940;8.450;2023-04-24T06:37:26;10.10;1.00
6244;DHT22;3155;49.940;8.450;2023-04-24T06:39:56;10.10;1.00
6244;DHT22;3155;49.940;8.450;2023-04-24T06:42:23;10.20;1.00
6244;DHT22;3155;49.940;8.450;2023-04-24T06:44:51;10.40;1.00
6244;DHT22;3155;49.940;8.450;2023-04-24T06:47:19;10.60;1.00
6244;DHT22;3155;49.940;8.450;2023-04-24T06:49:47;10.70;99.90
6244;DHT22;3155;49.940;8.450;2023-04-24T06:52:14;10.80;99.90
6244;DHT22;3155;49.940;8.450;2023-04-24T06:54:41;10.80;99.90
6244;DHT22;3155;49.940;8.450;2023-04-24T06:57:08;11.00;99.90
6244;DHT22;3155;49.940;8.450;2023-04-24T06:59:37;11.00;99.90
6244;DHT22;3155;49.940;8.450;2023-04-24T07:02:07;11.10;99.90
6244;DHT22;3155;49.940;8.450;2023-04-24T07:04:35;11.00;99.90
6244;DHT22;3155;49.940;8.450;2023-04-24T07:07:02;10.80;99.90
6244;DHT22;3155;49.940;8.450;2023-04-24T07:09:29;10.80;99.90
6244;DHT22;3155;49.940;8.450;2023-04-24T07:11:56;10.80;99.90
6244;DHT22;3155;49.940;8.450;2023-04-24T07:14:22;10.60;99.90
6244;DHT22;3155;49.940;8.450;2023-04-24T07:16:49;10.80;1.00
6244;DHT22;3155;49.940;8.450;2023-04-24T07:19:18;11.60;99.90
6244;DHT22;3155;49.940;8.450;2023-04-24T07:21:46;12.50;99.90
6244;DHT22;3155;49.940;8.450;2023-04-24T07:24:13;13.50;99.90
6244;DHT22;3155;49.940;8.450;2023-04-24T07:26:42;14.40;99.90
6244;DHT22;3155;49.940;8.450;2023-04-24T07:29:09;15.30;1.00
6244;DHT22;3155;49.940;8.450;2023-04-24T07:31:38;15.20;99.90
6244;DHT22;3155;49.940;8.450;2023-04-24T07:34:04;14.70;1.00
6244;DHT22;3155;49.940;8.450;2023-04-24T07:36:32;14.10;99.90
6244;DHT22;3155;49.940;8.450;2023-04-24T07:38:59;14.50;99.90
6244;DHT22;3155;49.940;8.450;2023-04-24T07:41:25;15.10;99.90
6244;DHT22;3155;49.940;8.450;2023-04-24T07:43:54;15.20;1.00
6244;DHT22;3155;49.940;8.450;2023-04-24T07:46:20;14.90;1.00
6244;DHT22;3155;49.940;8.450;2023-04-24T07:48:48;15.10;1.00
6244;DHT22;3155;49.940;8.450;2023-04-24T07:51:27;15.90;1.00
6244;DHT22;3155;49.940;8.450;2023-04-24T07:53:54;16.00;1.00
6244;DHT22;3155;49.940;8.450;2023-04-24T07:56:21;15.50;1.00
6244;DHT22;3155;49.940;8.450;2023-04-24T07:58:48;15.10;1.00
6244;DHT22;3155;49.940;8.450;2023-04-24T08:01:16;14.70;14.50
6244;DHT22;3155;49.940;8.450;2023-04-24T08:03:43;14.10;1.00
6244;DHT22;3155;49.940;8.450;2023-04-24T08:06:10;13.90;1.00
6244;DHT22;3155;49.940;8.450;2023-04-24T08:08:37;14.20;1.00
6244;DHT22;3155;49.940;8.450;2023-04-24T08:11:04;14.20;1.00
6244;DHT22;3155;49.940;8.450;2023-04-24T08:13:31;14.50;1.00
6244;DHT22;3155;49.940;8.450;2023-04-24T08:15:58;14.80;1.00
6244;DHT22;3155;49.940;8.450;2023-04-24T08:18:25;15.20;1.00
6244;DHT22;3155;49.940;8.450;2023-04-24T08:20:55;15.70;1.00
6244;DHT22;3155;49.940;8.450;2023-04-24T08:23:28;16.50;1.00
6244;DHT22;3155;49.940;8.450;2023-04-24T08:25:56;17.30;8.90
6244;DHT22;3155;49.940;8.450;2023-04-24T08:28:23;17.60;99.90
6244;DHT22;3155;49.940;8.450;2023-04-24T08:30:50;17.10;99.90
6244;DHT22;3155;49.940;8.450;2023-04-24T08:33:23;16.70;99.90
6244;DHT22;3155;49.940;8.450;2023-04-24T08:35:50;16.40;1.00
6244;DHT22;3155;49.940;8.450;2023-04-24T08:38:17;16.70;99.90
6244;DHT22;3155;49.940;8.450;2023-04-24T08:40:47;16.60;1.00
6244;DHT22;3155;49.940;8.450;2023-04-24T08:43:16;16.20;99.90
6244;DHT22;3155;49.940;8.450;2023-04-24T08:45:43;16.40;99.90
6244;DHT22;3155;49.940;8.450;2023-04-24T08:48:11;16.10;99.90
6244;DHT22;3155;49.940;8.450;2023-04-24T08:50:53;16.10;1.00
6244;DHT22;3155;49.940;8.450;2023-04-24T08:53:24;16.00;1.00
6244;DHT22;3155;49.940;8.450;2023-04-24T08:55:54;15.60;1.00
6244;DHT22;3155;49.940;8.450;2023-04-24T08:58:24;14.90;1.00
6244;DHT22;3155;49.940;8.450;2023-04-24T09:00:54;14.50;1.00
6244;DHT22;3155;49.940;8.450;2023-04-24T09:03:22;14.30;1.00
6244;DHT22;3155;49.940;8.450;2023-04-24T09:05:50;13.70;1.00
6244;DHT22;3155;49.940;8.450;2023-04-24T09:08:23;13.40;1.00
6244;DHT22;3155;49.940;8.450;2023-04-24T09:10:50;13.30;1.00
6244;DHT22;3155;49.940;8.450;2023-04-24T09:13:19;13.10;1.00
6244;DHT22;3155;49.940;8.450;2023-04-24T09:15:46;13.20;1.00
6244;DHT22;3155;49.940;8.450;2023-04-24T09:18:13;13.50;1.00
6244;DHT22;3155;49.940;8.450;2023-04-24T09:21:17;13.80;1.00
6244;DHT22;3155;49.940;8.450;2023-04-24T09:23:44;13.80;1.00
6244;DHT22;3155;49.940;8.450;2023-04-24T09:26:11;13.80;1.00
6244;DHT22;3155;49.940;8.450;2023-04-24T09:28:42;13.90;1.00
6244;DHT22;3155;49.940;8.450;2023-04-24T09:31:14;13.80;1.00
6244;DHT22;3155;49.940;8.450;2023-04-24T09:33:55;14.10;1.00
6244;DHT22;3155;49.940;8.450;2023-04-24T09:36:32;14.50;1.00
6244;DHT22;3155;49.940;8.450;2023-04-24T09:39:01;14.10;99.90
6244;DHT22;3155;49.940;8.450;2023-04-24T09:41:29;13.60;1.00
6244;DHT22;3155;49.940;8.450;2023-04-24T09:43:56;13.30;1.00
6244;DHT22;3155;49.940;8.450;2023-04-24T09:46:30;13.30;1.00
6244;DHT22;3155;49.940;8.450;2023-04-24T09:49:13;13.50;99.90
6244;DHT22;3155;49.940;8.450;2023-04-24T09:51:40;14.20;1.00
6244;DHT22;3155;49.940;8.450;2023-04-24T09:54:15;15.10;99.90
6244;DHT22;3155;49.940;8.450;2023-04-24T09:56:44;15.10;99.90
6244;DHT22;3155;49.940;8.450;2023-04-24T09:59:13;15.30;1.00
6244;DHT22;3155;49.940;8.450;2023-04-24T10:01:40;15.20;1.00
6244;DHT22;3155;49.940;8.450;2023-04-24T10:04:26;14.90;99.90
6244;DHT22;3155;49.940;8.450;2023-04-24T10:06:55;14.70;1.00
6244;DHT22;3155;49.940;8.450;2023-04-24T10:09:26;14.10;1.00
6244;DHT22;3155;49.940;8.450;2023-04-24T10:11:54;13.60;99.90
6244;DHT22;3155;49.940;8.450;2023-04-24T10:14:23;13.10;1.00
6244;DHT22;3155;49.940;8.450;2023-04-24T10:16:53;12.90;99.90
6244;DHT22;3155;49.940;8.450;2023-04-24T10:19:20;12.60;99.90
6244;DHT22;3155;49.940;8.450;2023-04-24T10:21:47;12.80;99.90
6244;DHT22;3155;49.940;8.450;2023-04-24T10:24:18;13.30;99.90
6244;DHT22;3155;49.940;8.450;2023-04-24T10:26:48;13.80;99.90
6244;DHT22;3155;49.940;8.450;2023-04-24T10:29:19;14.60;99.90
6244;DHT22;3155;49.940;8.450;2023-04-24T10:31:47;15.40;99.90
6244;DHT22;3155;49.940;8.450;2023-04-24T10:34:20;15.70;1.00
6244;DHT22;3155;49.940;8.450;2023-04-24T10:36:52;16.20;1.00
6244;DHT22;3155;49.940;8.450;2023-04-24T10:39:50;16.30;1.00
6244;DHT22;3155;49.940;8.450;2023-04-24T10:42:21;16.30;18.10
6244;DHT22;3155;49.940;8.450;2023-04-24T10:44:50;15.90;1.00
6244;DHT22;3155;49.940;8.450;2023-04-24T10:47:22;15.20;1.00
6244;DHT22;3155;49.940;8.450;2023-04-24T10:49:54;14.60;99.90
6244;DHT22;3155;49.940;8.450;2023-04-24T10:52:47;13.30;1.00
6244;DHT22;3155;49.940;8.450;2023-04-24T10:55:41;12.10;99.90
6244;DHT22;3155;49.940;8.450;2023-04-24T10:58:09;11.10;1.00
6244;DHT22;3155;49.940;8.450;2023-04-24T11:00:42;10.50;99.90
6244;DHT22;3155;49.940;8.450;2023-04-24T11:03:28;10.00;1.00
6244;DHT22;3155;49.940;8.450;2023-04-24T11:08:42;10.00;1.00
6244;DHT22;3155;49.940;8.450;2023-04-24T11:11:19;10.30;1.00
6244;DHT22;3155;49.940;8.450;2023-04-24T11:16:52;10.80;99.90
6244;DHT22;3155;49.940;8.450;2023-04-24T11:19:24;11.10;1.00
6244;DHT22;3155;49.940;8.450;2023-04-24T11:22:02;11.30;1.00
6244;DHT22;3155;49.940;8.450;2023-04-24T11:27:06;10.60;99.90
6244;DHT22;3155;49.940;8.450;2023-04-24T11:29:46;10.40;91.90
6244;DHT22;3155;49.940;8.450;2023-04-24T11:40:02;10.30;1.00
6244;DHT22;3155;49.940;8.450;2023-04-24T11:42:39;10.50;1.00
6244;DHT22;3155;49.940;8.450;2023-04-24T11:45:24;10.80;99.90
6244;DHT22;3155;49.940;8.450;2023-04-24T11:47:51;11.40;17.50
6244;DHT22;3155;49.940;8.450;2023-04-24T11:50:21;12.00;99.90
6244;DHT22;3155;49.940;8.450;2023-04-24T11:52:50;12.30;99.90
6244;DHT22;3155;49.940;8.450;2023-04-24T11:57:49;12.30;99.90
6244;DHT22;3155;49.940;8.450;2023-04-24T12:00:18;12.90;99.90
6244;DHT22;3155;49.940;8.450;2023-04-24T12:02:45;13.50;99.90
6244;DHT22;3155;49.940;8.450;2023-04-24T12:07:48;14.20;99.90
6244;DHT22;3155;49.940;8.450;2023-04-24T12:10:20;14.70;99.90
6244;DHT22;3155;49.940;8.450;2023-04-24T12:12:48;15.30;99.90
6244;DHT22;3155;49.940;8.450;2023-04-24T12:15:19;15.70;99.90
6244;DHT22;3155;49.940;8.450;2023-04-24T12:17:52;15.60;99.90
6244;DHT22;3155;49.940;8.450;2023-04-24T12:20:30;15.90;99.90
6244;DHT22;3155;49.940;8.450;2023-04-24T12:23:01;15.60;99.90
6244;DHT22;3155;49.940;8.450;2023-04-24T12:25:32;14.90;99.90
6244;DHT22;3155;49.940;8.450;2023-04-24T12:30:43;13.80;99.90
6244;DHT22;3155;49.940;8.450;2023-04-24T12:33:20;13.30;99.90
6244;DHT22;3155;49.940;8.450;2023-04-24T12:35:53;13.00;99.90
6244;DHT22;3155;49.940;8.450;2023-04-24T12:38:26;12.80;99.90
6244;DHT22;3155;49.940;8.450;2023-04-24T12:41:08;12.30;99.90
6244;DHT22;3155;49.940;8.450;2023-04-24T12:43:35;12.20;99.90
6244;DHT22;3155;49.940;8.450;2023-04-24T12:46:03;12.30;99.90
6244;DHT22;3155;49.940;8.450;2023-04-24T12:48:34;12.60;99.90
6244;DHT22;3155;49.940;8.450;2023-04-24T12:51:01;13.20;99.90
6244;DHT22;3155;49.940;8.450;2023-04-24T12:53:28;14.00;99.90
6244;DHT22;3155;49.940;8.450;2023-04-24T12:55:58;14.80;99.90
6244;DHT22;3155;49.940;8.450;2023-04-24T12:58:24;15.60;99.90
6244;DHT22;3155;49.940;8.450;2023-04-24T13:00:51;16.00;99.90
6244;DHT22;3155;49.940;8.450;2023-04-24T13:03:24;16.00;99.90
6244;DHT22;3155;49.940;8.450;2023-04-24T13:05:51;15.70;99.90
6244;DHT22;3155;49.940;8.450;2023-04-24T13:08:19;15.40;99.90
6244;DHT22;3155;49.940;8.450;2023-04-24T13:10:47;15.10;99.90
6244;DHT22;3155;49.940;8.450;2023-04-24T13:13:14;14.80;99.90
6244;DHT22;3155;49.940;8.450;2023-04-24T13:15:41;15.00;99.90
6244;DHT22;3155;49.940;8.450;2023-04-24T13:18:07;15.30;99.90
6244;DHT22;3155;49.940;8.450;2023-04-24T13:20:34;16.00;99.90
6244;DHT22;3155;49.940;8.450;2023-04-24T13:23:02;16.20;99.90
6244;DHT22;3155;49.940;8.450;2023-04-24T13:25:35;15.90;99.90
6244;DHT22;3155;49.940;8.450;2023-04-24T13:28:07;15.50;99.90
6244;DHT22;3155;49.940;8.450;2023-04-24T13:30:36;15.00;99.90
6244;DHT22;3155;49.940;8.450;2023-04-24T13:33:03;14.40;99.90
6244;DHT22;3155;49.940;8.450;2023-04-24T13:35:33;14.00;99.90
6244;DHT22;3155;49.940;8.450;2023-04-24T13:38:03;13.80;99.90
6244;DHT22;3155;49.940;8.450;2023-04-24T13:40:33;13.50;99.90
6244;DHT22;3155;49.940;8.450;2023-04-24T13:42:59;13.30;99.90
6244;DHT22;3155;49.940;8.450;2023-04-24T13:45:27;13.30;99.90
6244;DHT22;3155;49.940;8.450;2023-04-24T13:47:56;13.50;99.90
6244;DHT22;3155;49.940;8.450;2023-04-24T13:50:28;14.10;99.90
6244;DHT22;3155;49.940;8.450;2023-04-24T13:52:54;14.60;99.90
6244;DHT22;3155;49.940;8.450;2023-04-24T13:55:23;15.10;99.90
6244;DHT22;3155;49.940;8.450;2023-04-24T13:57:50;15.50;99.90
6244;DHT22;3155;49.940;8.450;2023-04-24T14:00:17;15.40;99.90
6244;DHT22;3155;49.940;8.450;2023-04-24T14:02:44;15.20;99.90
6244;DHT22;3155;49.940;8.450;2023-04-24T14:05:13;14.80;99.90
6244;DHT22;3155;49.940;8.450;2023-04-24T14:07:43;14.20;99.90
6244;DHT22;3155;49.940;8.450;2023-04-24T14:10:14;13.90;99.90
6244;DHT22;3155;49.940;8.450;2023-04-24T14:12:41;13.80;99.90
6244;DHT22;3155;49.940;8.450;2023-04-24T14:15:12;13.70;99.90
6244;DHT22;3155;49.940;8.450;2023-04-24T14:17:44;13.80;99.90
6244;DHT22;3155;49.940;8.450;2023-04-24T14:20:12;14.00;99.90
6244;DHT22;3155;49.940;8.450;2023-04-24T14:22:43;14.40;99.90
6244;DHT22;3155;49.940;8.450;2023-04-24T14:25:10;14.60;99.90
6244;DHT22;3155;49.940;8.450;2023-04-24T14:27:39;14.60;99.90
6244;DHT22;3155;49.940;8.450;2023-04-24T14:30:07;14.40;99.90
6244;DHT22;3155;49.940;8.450;2023-04-24T14:32:33;14.30;99.90
6244;DHT22;3155;49.940;8.450;2023-04-24T14:35:08;14.20;99.90
6244;DHT22;3155;49.940;8.450;2023-04-24T14:37:35;14.10;99.90
6244;DHT22;3155;49.940;8.450;2023-04-24T14:40:09;14.20;99.90
6244;DHT22;3155;49.940;8.450;2023-04-24T14:42:56;14.30;99.90
6244;DHT22;3155;49.940;8.450;2023-04-24T14:45:25;14.40;99.90
6244;DHT22;3155;49.940;8.450;2023-04-24T14:47:52;14.50;99.90
6244;DHT22;3155;49.940;8.450;2023-04-24T14:50:19;14.80;99.90
6244;DHT22;3155;49.940;8.450;2023-04-24T14:52:50;15.40;99.90
6244;DHT22;3155;49.940;8.450;2023-04-24T14:55:17;15.40;99.90
6244;DHT22;3155;49.940;8.450;2023-04-24T14:57:47;15.10;99.90
6244;DHT22;3155;49.940;8.450;2023-04-24T15:00:14;14.80;99.90
6244;DHT22;3155;49.940;8.450;2023-04-24T15:02:42;14.80;99.90
6244;DHT22;3155;49.940;8.450;2023-04-24T15:05:12;15.60;99.90
6244;DHT22;3155;49.940;8.450;2023-04-24T15:07:42;16.80;99.90
6244;DHT22;3155;49.940;8.450;2023-04-24T15:10:09;16.60;99.90
6244;DHT22;3155;49.940;8.450;2023-04-24T15:12:35;16.10;99.90
6244;DHT22;3155;49.940;8.450;2023-04-24T15:15:02;15.90;99.90
6244;DHT22;3155;49.940;8.450;2023-04-24T15:17:29;16.10;99.90
6244;DHT22;3155;49.940;8.450;2023-04-24T15:19:56;16.10;99.90
6244;DHT22;3155;49.940;8.450;2023-04-24T15:22:23;15.80;99.90
6244;DHT22;3155;49.940;8.450;2023-04-24T15:24:53;15.40;99.90
6244;DHT22;3155;49.940;8.450;2023-04-24T15:27:20;15.00;99.90
6244;DHT22;3155;49.940;8.450;2023-04-24T15:29:48;14.80;99.90
6244;DHT22;3155;49.940;8.450;2023-04-24T15:32:20;14.50;99.90
6244;DHT22;3155;49.940;8.450;2023-04-24T15:34:51;14.20;99.90
6244;DHT22;3155;49.940;8.450;2023-04-24T15:37:33;14.40;99.90
6244;DHT22;3155;49.940;8.450;2023-04-24T15:40:02;15.50;99.90
6244;DHT22;3155;49.940;8.450;2023-04-24T15:42:31;15.20;99.90
6244;DHT22;3155;49.940;8.450;2023-04-24T15:45:02;14.70;99.90
6244;DHT22;3155;49.940;8.450;2023-04-24T15:47:29;14.30;99.90
6244;DHT22;3155;49.940;8.450;2023-04-24T15:50:00;14.00;99.90
6244;DHT22;3155;49.940;8.450;2023-04-24T15:52:27;13.80;99.90
6244;DHT22;3155;49.940;8.450;2023-04-24T15:54:58;13.80;99.90
6244;DHT22;3155;49.940;8.450;2023-04-24T15:57:25;13.80;99.90
6244;DHT22;3155;49.940;8.450;2023-04-24T15:59:52;13.80;99.90
6244;DHT22;3155;49.940;8.450;2023-04-24T16:02:18;13.70;99.90
6244;DHT22;3155;49.940;8.450;2023-04-24T16:04:48;13.60;99.90
6244;DHT22;3155;49.940;8.450;2023-04-24T16:07:16;13.50;99.90
6244;DHT22;3155;49.940;8.450;2023-04-24T16:09:43;13.40;99.90
6244;DHT22;3155;49.940;8.450;2023-04-24T16:12:34;13.20;99.90
6244;DHT22;3155;49.940;8.450;2023-04-24T16:15:01;13.10;99.90
6244;DHT22;3155;49.940;8.450;2023-04-24T16:17:28;13.00;99.90
6244;DHT22;3155;49.940;8.450;2023-04-24T16:19:55;12.90;99.90
6244;DHT22;3155;49.940;8.450;2023-04-24T16:22:24;12.80;99.90
6244;DHT22;3155;49.940;8.450;2023-04-24T16:24:51;12.60;99.90
6244;DHT22;3155;49.940;8.450;2023-04-24T16:27:18;12.60;99.90
6244;DHT22;3155;49.940;8.450;2023-04-24T16:29:45;12.60;99.90
6244;DHT22;3155;49.940;8.450;2023-04-24T16:32:11;12.70;99.90
6244;DHT22;3155;49.940;8.450;2023-04-24T16:34:38;12.80;99.90
6244;DHT22;3155;49.940;8.450;2023-04-24T16:37:05;13.20;99.90
6244;DHT22;3155;49.940;8.450;2023-04-24T16:39:34;13.80;99.90
6244;DHT22;3155;49.940;8.450;2023-04-24T16:42:01;14.10;99.90
6244;DHT22;3155;49.940;8.450;2023-04-24T16:44:29;14.60;99.90
6244;DHT22;3155;49.940;8.450;2023-04-24T16:46:56;15.10;99.90
6244;DHT22;3155;49.940;8.450;2023-04-24T16:49:29;15.00;99.90